Time;durP1;ratioP1;P1;durP2;ratioP2;P2;SDS_P1;SDS_P2;PMS_P1;PMS_P2;Temp;Humidity;BMP_temperature;BMP_pressure;BME280_temperature;BME280_humidity;BME280_pressure;Samples;Min_cycle;Max_cycle;Signal;HPM_P1;HPM_P2
2020/12/28 00:01:09;;;;;;;25.23;13.77;;;;;;;;;;5087194;28;20052;-63
2020/12/28 00:03:35;;;;;;;18.98;11.35;;;;;;;;;;5085333;28;20109;-64
2020/12/28 00:06:01;;;;;;;25.27;12.85;;;;;;;;;;5077332;28;20119;-64
2020/12/28 00:08:28;;;;;;;21.23;12.60;;;;;;;;;;5091763;28;20063;-62
2020/12/28 00:10:54;;;;;;;27.48;14.30;;;;;;;;;;5086308;28;20882;-63
2020/12/28 00:13:20;;;;;;;25.63;14.05;;;;;;;;;;5083893;28;20036;-64
2020/12/28 00:15:47;;;;;;;29.33;15.15;;;;;;;;;;5085616;28;20135;-64
2020/12/28 00:18:13;;;;;;;41.75;18.88;;;;;;;;;;5087559;28;20082;-63
2020/12/28 00:20:39;;;;;;;39.75;18.55;;;;;;;;;;5084284;28;20126;-64
2020/12/28 00:23:06;;;;;;;35.58;16.67;;;;;;;;;;5083958;28;20406;-64
2020/12/28 00:25:32;;;;;;;38.58;17.80;;;;;;;;;;5080805;28;20122;-64
2020/12/28 00:27:59;;;;;;;39.22;17.63;;;;;;;;;;5084256;28;20055;-64
2020/12/28 00:30:25;;;;;;;41.08;18.70;;;;;;;;;;5086727;28;20048;-64
2020/12/28 00:32:52;;;;;;;35.40;16.90;;;;;;;;;;5083742;28;20097;-64
2020/12/28 00:35:18;;;;;;;32.65;15.07;;;;;;;;;;5088868;28;20036;-64
2020/12/28 00:37:45;;;;;;;30.65;14.25;;;;;;;;;;5086579;28;20044;-64
2020/12/28 00:40:11;;;;;;;28.02;13.05;;;;;;;;;;5084043;28;20522;-64
2020/12/28 00:42:38;;;;;;;28.48;14.43;;;;;;;;;;5079273;28;20556;-63
2020/12/28 00:45:07;;;;;;;34.92;14.60;;;;;;;;;;5084426;28;20339;-64
2020/12/28 00:47:34;;;;;;;31.27;13.25;;;;;;;;;;5088617;28;20098;-64
2020/12/28 00:50:00;;;;;;;23.35;11.85;;;;;;;;;;5085472;28;20441;-63
2020/12/28 00:52:26;;;;;;;22.50;12.15;;;;;;;;;;5084693;28;20055;-64
2020/12/28 00:54:53;;;;;;;31.95;15.07;;;;;;;;;;5087362;28;20036;-64
2020/12/28 00:57:19;;;;;;;39.15;17.88;;;;;;;;;;5088732;28;20448;-64
2020/12/28 00:59:45;;;;;;;52.38;20.30;;;;;;;;;;5084319;28;20135;-64
2020/12/28 01:02:11;;;;;;;45.42;19.05;;;;;;;;;;5086414;28;20052;-63
2020/12/28 01:04:38;;;;;;;48.38;19.13;;;;;;;;;;5083576;28;20040;-64
2020/12/28 01:07:04;;;;;;;57.72;20.33;;;;;;;;;;5091177;28;20089;-63
2020/12/28 01:09:30;;;;;;;60.85;21.70;;;;;;;;;;5086719;28;20046;-64
2020/12/28 01:11:57;;;;;;;63.63;19.38;;;;;;;;;;5092028;28;20047;-64
2020/12/28 01:14:23;;;;;;;52.78;17.10;;;;;;;;;;5089293;28;20125;-64
2020/12/28 01:16:50;;;;;;;72.22;21.38;;;;;;;;;;5091578;28;20560;-64
2020/12/28 01:19:16;;;;;;;52.20;18.65;;;;;;;;;;5086179;28;20076;-64
2020/12/28 01:21:42;;;;;;;105.35;23.30;;;;;;;;;;5090040;28;20708;-63
2020/12/28 01:24:09;;;;;;;64.30;22.08;;;;;;;;;;5083991;28;20041;-64
2020/12/28 01:26:35;;;;;;;106.18;22.38;;;;;;;;;;5090728;28;20067;-64
2020/12/28 01:29:02;;;;;;;70.47;21.77;;;;;;;;;;5090501;28;20055;-63
2020/12/28 01:31:28;;;;;;;71.57;20.55;;;;;;;;;;5091089;28;20411;-64
2020/12/28 01:33:54;;;;;;;98.63;29.10;;;;;;;;;;5089288;28;20044;-64
2020/12/28 01:36:21;;;;;;;96.15;31.60;;;;;;;;;;5093801;28;20142;-64
2020/12/28 01:38:47;;;;;;;85.65;29.52;;;;;;;;;;5090568;28;20184;-64
2020/12/28 01:41:13;;;;;;;94.25;30.38;;;;;;;;;;5093053;28;20130;-64
2020/12/28 01:43:40;;;;;;;112.75;34.47;;;;;;;;;;5089364;28;20044;-64
2020/12/28 01:46:07;;;;;;;124.65;34.92;;;;;;;;;;5089242;28;20044;-64
2020/12/28 01:48:34;;;;;;;119.78;35.83;;;;;;;;;;5089023;28;20117;-64
2020/12/28 01:51:00;;;;;;;100.28;32.25;;;;;;;;;;5098629;28;20036;-64
2020/12/28 01:53:28;;;;;;;107.85;31.77;;;;;;;;;;5086984;28;20032;-63
2020/12/28 01:55:56;;;;;;;125.55;35.08;;;;;;;;;;5089941;28;20051;-64
2020/12/28 01:58:22;;;;;;;136.60;38.80;;;;;;;;;;5089706;28;20114;-64
2020/12/28 02:00:49;;;;;;;145.80;41.47;;;;;;;;;;5090055;28;20051;-64
2020/12/28 02:03:16;;;;;;;171.60;42.90;;;;;;;;;;5089019;28;20040;-64
2020/12/28 02:05:42;;;;;;;169.85;44.58;;;;;;;;;;5092873;28;20044;-64
2020/12/28 02:08:08;;;;;;;193.38;45.58;;;;;;;;;;5093082;28;20046;-64
2020/12/28 02:10:34;;;;;;;204.88;49.40;;;;;;;;;;5090439;28;20336;-64
2020/12/28 02:13:01;;;;;;;203.63;49.55;;;;;;;;;;5102691;28;20044;-64
2020/12/28 02:15:27;;;;;;;196.60;49.35;;;;;;;;;;5099717;28;20048;-63
2020/12/28 02:17:53;;;;;;;207.15;50.13;;;;;;;;;;5091148;28;20114;-64
2020/12/28 02:20:20;;;;;;;194.88;49.78;;;;;;;;;;5087626;28;20064;-64
2020/12/28 02:22:46;;;;;;;171.38;47.75;;;;;;;;;;5092149;28;20048;-64
2020/12/28 02:25:12;;;;;;;165.40;46.90;;;;;;;;;;5093201;28;20036;-64
2020/12/28 02:27:38;;;;;;;142.07;45.42;;;;;;;;;;5088190;28;20530;-64
2020/12/28 02:30:05;;;;;;;155.45;46.10;;;;;;;;;;5085352;28;20048;-63
2020/12/28 02:32:32;;;;;;;170.43;47.25;;;;;;;;;;5091813;28;20532;-64
2020/12/28 02:34:58;;;;;;;161.35;46.10;;;;;;;;;;5091212;28;20560;-64
2020/12/28 02:37:24;;;;;;;145.40;44.13;;;;;;;;;;5093335;28;20123;-64
2020/12/28 02:39:51;;;;;;;178.27;46.83;;;;;;;;;;5089688;28;20051;-64
2020/12/28 02:42:17;;;;;;;230.70;50.05;;;;;;;;;;5086569;28;20044;-64
2020/12/28 02:44:43;;;;;;;168.18;45.85;;;;;;;;;;5091712;28;20054;-64
2020/12/28 02:47:10;;;;;;;165.13;44.92;;;;;;;;;;5090765;28;20045;-64
2020/12/28 02:49:36;;;;;;;167.13;44.90;;;;;;;;;;5089962;28;20070;-64
2020/12/28 02:52:02;;;;;;;171.25;44.72;;;;;;;;;;5089084;28;20086;-63
2020/12/28 02:54:29;;;;;;;173.20;45.13;;;;;;;;;;5088276;28;20040;-64
2020/12/28 02:56:55;;;;;;;195.15;46.40;;;;;;;;;;5089804;28;20059;-64
2020/12/28 02:59:21;;;;;;;178.75;44.92;;;;;;;;;;5092542;28;20111;-63
2020/12/28 03:01:49;;;;;;;163.90;45.78;;;;;;;;;;5087956;28;20044;-64
2020/12/28 03:04:15;;;;;;;203.13;47.58;;;;;;;;;;5088660;28;20063;-64
2020/12/28 03:06:42;;;;;;;143.40;41.85;;;;;;;;;;5090475;28;20063;-64
2020/12/28 03:09:08;;;;;;;149.23;42.15;;;;;;;;;;5088700;28;20118;-64
2020/12/28 03:11:36;;;;;;;161.07;43.90;;;;;;;;;;5086864;28;20143;-64
2020/12/28 03:14:03;;;;;;;121.38;40.22;;;;;;;;;;5084940;28;20495;-64
2020/12/28 03:16:29;;;;;;;136.93;41.15;;;;;;;;;;5088855;28;20142;-64
2020/12/28 03:18:56;;;;;;;119.32;38.30;;;;;;;;;;5089238;28;20059;-64
2020/12/28 03:21:22;;;;;;;121.40;40.25;;;;;;;;;;5088321;28;20044;-64
2020/12/28 03:23:48;;;;;;;130.48;38.78;;;;;;;;;;5090572;28;20523;-64
2020/12/28 03:26:15;;;;;;;127.72;39.67;;;;;;;;;;5093222;28;20578;-64
2020/12/28 03:28:41;;;;;;;100.85;36.13;;;;;;;;;;5085164;28;20047;-64
2020/12/28 03:31:08;;;;;;;108.18;36.33;;;;;;;;;;5088295;28;20067;-64
2020/12/28 03:33:34;;;;;;;104.80;36.88;;;;;;;;;;5089240;28;20048;-64
2020/12/28 03:36:00;;;;;;;108.35;37.22;;;;;;;;;;5086770;28;20128;-64
2020/12/28 03:38:27;;;;;;;98.78;34.13;;;;;;;;;;5088761;28;20040;-64
2020/12/28 03:40:53;;;;;;;98.88;37.38;;;;;;;;;;5090126;28;20087;-64
2020/12/28 03:43:19;;;;;;;83.95;34.72;;;;;;;;;;5088431;28;20085;-64
2020/12/28 03:45:46;;;;;;;89.78;36.30;;;;;;;;;;5083498;28;21468;-64
2020/12/28 03:48:12;;;;;;;95.32;37.58;;;;;;;;;;5087199;28;20483;-63
2020/12/28 03:50:38;;;;;;;101.93;37.63;;;;;;;;;;5089815;28;20105;-64
2020/12/28 03:53:04;;;;;;;115.25;39.30;;;;;;;;;;5087772;28;21542;-64
2020/12/28 03:55:31;;;;;;;104.22;38.33;;;;;;;;;;5087843;28;20044;-64
2020/12/28 03:57:57;;;;;;;95.15;36.83;;;;;;;;;;5090407;28;20127;-64
2020/12/28 04:00:23;;;;;;;81.72;33.92;;;;;;;;;;5088406;28;20039;-63
2020/12/28 04:02:49;;;;;;;78.82;34.13;;;;;;;;;;5085571;28;20060;-64
2020/12/28 04:05:16;;;;;;;86.88;35.22;;;;;;;;;;5090346;28;20070;-63
2020/12/28 04:07:42;;;;;;;91.32;35.58;;;;;;;;;;5085062;28;20052;-64
2020/12/28 04:10:08;;;;;;;94.88;37.17;;;;;;;;;;5088738;28;20118;-64
2020/12/28 04:12:35;;;;;;;95.00;37.35;;;;;;;;;;5086018;28;20082;-63
2020/12/28 04:15:01;;;;;;;101.72;37.90;;;;;;;;;;5086612;28;20044;-64
2020/12/28 04:17:27;;;;;;;113.75;38.65;;;;;;;;;;5088365;28;20086;-63
2020/12/28 04:19:53;;;;;;;97.60;39.08;;;;;;;;;;5086689;28;20101;-64
2020/12/28 04:22:20;;;;;;;102.22;37.15;;;;;;;;;;5085594;28;20075;-63
2020/12/28 04:24:46;;;;;;;112.88;39.40;;;;;;;;;;5089852;28;20036;-64
2020/12/28 04:27:12;;;;;;;99.22;37.10;;;;;;;;;;5086070;28;20130;-64
2020/12/28 04:29:38;;;;;;;103.40;38.08;;;;;;;;;;5091173;28;20047;-64
2020/12/28 04:32:05;;;;;;;106.28;40.38;;;;;;;;;;5090202;28;20056;-64
2020/12/28 04:34:32;;;;;;;104.65;38.35;;;;;;;;;;5085473;28;20042;-64
2020/12/28 04:36:58;;;;;;;95.38;37.22;;;;;;;;;;5092611;28;20100;-64
2020/12/28 04:39:25;;;;;;;95.20;36.08;;;;;;;;;;5094250;28;20040;-64
2020/12/28 04:41:51;;;;;;;114.10;41.28;;;;;;;;;;5085623;28;20122;-63
2020/12/28 04:44:17;;;;;;;134.27;43.50;;;;;;;;;;5086903;28;20040;-64
2020/12/28 04:46:44;;;;;;;123.40;38.83;;;;;;;;;;5088198;28;20147;-64
2020/12/28 04:49:10;;;;;;;114.50;39.08;;;;;;;;;;5093327;28;20039;-64
2020/12/28 04:51:37;;;;;;;131.15;41.42;;;;;;;;;;5083417;28;20047;-64
2020/12/28 04:54:03;;;;;;;116.90;39.90;;;;;;;;;;5087779;28;20040;-63
2020/12/28 04:56:29;;;;;;;108.75;40.20;;;;;;;;;;5087083;28;20566;-64
2020/12/28 04:58:55;;;;;;;98.63;36.25;;;;;;;;;;5087718;28;20071;-64
2020/12/28 05:01:22;;;;;;;101.18;35.78;;;;;;;;;;5094449;28;20076;-64
2020/12/28 05:03:50;;;;;;;110.20;36.35;;;;;;;;;;5090522;28;20137;-64
2020/12/28 05:06:16;;;;;;;126.18;39.80;;;;;;;;;;5087511;28;20044;-64
2020/12/28 05:08:43;;;;;;;120.65;37.58;;;;;;;;;;5090236;28;20475;-64
2020/12/28 05:11:09;;;;;;;109.65;37.00;;;;;;;;;;5090632;28;20135;-63
2020/12/28 05:13:36;;;;;;;111.47;37.50;;;;;;;;;;5086794;28;20070;-64
2020/12/28 05:16:02;;;;;;;113.13;39.75;;;;;;;;;;5085886;28;20055;-64
2020/12/28 05:18:28;;;;;;;89.15;33.92;;;;;;;;;;5085865;28;20032;-64
2020/12/28 05:20:55;;;;;;;83.10;33.95;;;;;;;;;;5081644;28;20055;-64
2020/12/28 05:23:21;;;;;;;90.50;35.15;;;;;;;;;;5085217;28;20147;-64
2020/12/28 05:25:48;;;;;;;93.30;34.70;;;;;;;;;;5086588;28;20036;-64
2020/12/28 05:28:16;;;;;;;80.53;32.28;;;;;;;;;;5083977;28;20063;-64
2020/12/28 05:30:43;;;;;;;80.53;33.75;;;;;;;;;;5119234;27;20048;-64
2020/12/28 05:33:10;;;;;;;64.10;29.38;;;;;;;;;;5088678;28;20036;-64
2020/12/28 05:35:37;;;;;;;81.38;33.47;;;;;;;;;;5087447;28;20122;-64
2020/12/28 05:38:04;;;;;;;75.53;29.95;;;;;;;;;;5086675;28;20032;-64
2020/12/28 05:40:30;;;;;;;73.15;31.20;;;;;;;;;;5086611;28;20056;-64
2020/12/28 05:42:57;;;;;;;85.05;33.75;;;;;;;;;;5085032;28;20142;-64
2020/12/28 05:45:23;;;;;;;93.40;34.55;;;;;;;;;;5084587;28;20471;-64
2020/12/28 05:47:51;;;;;;;80.05;33.88;;;;;;;;;;5085728;28;20158;-64
2020/12/28 05:50:20;;;;;;;99.53;37.40;;;;;;;;;;5085338;28;20054;-64
2020/12/28 05:52:49;;;;;;;73.75;31.63;;;;;;;;;;5084459;28;20043;-64
2020/12/28 05:55:18;;;;;;;65.40;31.27;;;;;;;;;;5085010;28;20407;-64
2020/12/28 05:57:45;;;;;;;58.08;28.52;;;;;;;;;;5084940;28;20149;-64
2020/12/28 06:00:12;;;;;;;58.88;28.05;;;;;;;;;;5090674;28;20085;-64
2020/12/28 06:02:39;;;;;;;56.33;27.55;;;;;;;;;;5088975;28;20054;-63
2020/12/28 06:05:08;;;;;;;48.88;26.30;;;;;;;;;;5088789;28;20406;-64
2020/12/28 06:07:34;;;;;;;56.90;27.15;;;;;;;;;;5091807;28;20450;-64
2020/12/28 06:10:00;;;;;;;63.15;28.38;;;;;;;;;;5094938;28;20048;-64
2020/12/28 06:12:27;;;;;;;51.47;26.92;;;;;;;;;;5089532;28;20028;-64
2020/12/28 06:14:53;;;;;;;57.08;28.55;;;;;;;;;;5088169;28;20051;-63
2020/12/28 06:17:19;;;;;;;59.30;27.83;;;;;;;;;;5087945;28;20032;-64
2020/12/28 06:19:46;;;;;;;71.63;29.80;;;;;;;;;;5087673;28;20040;-64
2020/12/28 06:22:20;;;;;;;67.07;29.33;;;;;;;;;;5086810;28;20126;-64
2020/12/28 06:25:01;;;;;;;78.20;31.98;;;;;;;;;;5088033;28;20145;-64
2020/12/28 06:27:28;;;;;;;64.95;30.13;;;;;;;;;;5086173;28;20042;-64
2020/12/28 06:29:54;;;;;;;79.50;31.27;;;;;;;;;;5088053;28;20044;-64
2020/12/28 06:32:21;;;;;;;75.00;30.08;;;;;;;;;;5091832;28;20115;-65
2020/12/28 06:35:00;;;;;;;68.55;31.92;;;;;;;;;;5086802;28;20464;-65
2020/12/28 06:37:26;;;;;;;78.03;32.20;;;;;;;;;;5092066;28;20558;-64
2020/12/28 06:39:56;;;;;;;69.20;29.65;;;;;;;;;;5093907;28;20094;-64
2020/12/28 06:42:22;;;;;;;61.08;27.90;;;;;;;;;;5091845;28;20051;-64
2020/12/28 06:44:49;;;;;;;60.10;29.38;;;;;;;;;;5092672;28;20091;-65
2020/12/28 06:47:16;;;;;;;60.60;28.42;;;;;;;;;;5095188;28;20052;-64
2020/12/28 06:49:43;;;;;;;63.55;29.20;;;;;;;;;;5092886;28;20475;-64
2020/12/28 06:52:09;;;;;;;65.82;29.52;;;;;;;;;;5094132;28;20482;-64
2020/12/28 06:54:35;;;;;;;61.50;31.50;;;;;;;;;;5095972;28;20451;-64
2020/12/28 06:57:05;;;;;;;59.45;28.80;;;;;;;;;;5095023;28;20518;-64
2020/12/28 06:59:32;;;;;;;64.47;29.48;;;;;;;;;;5091904;28;20055;-63
2020/12/28 07:01:59;;;;;;;58.10;29.02;;;;;;;;;;5092882;28;20062;-63
2020/12/28 07:04:27;;;;;;;57.97;28.70;;;;;;;;;;5089153;28;20055;-63
2020/12/28 07:06:56;;;;;;;59.72;26.55;;;;;;;;;;5095106;28;20082;-63
2020/12/28 07:09:23;;;;;;;59.97;28.23;;;;;;;;;;5093317;28;20407;-62
2020/12/28 07:11:50;;;;;;;65.50;28.48;;;;;;;;;;5088141;28;20563;-63
2020/12/28 07:14:18;;;;;;;55.97;28.60;;;;;;;;;;5092983;28;20059;-63
2020/12/28 07:16:44;;;;;;;48.90;25.48;;;;;;;;;;5093288;28;20036;-63
2020/12/28 07:19:10;;;;;;;52.55;26.52;;;;;;;;;;5089302;28;20044;-63
2020/12/28 07:21:36;;;;;;;47.58;24.77;;;;;;;;;;5090317;28;20037;-64
2020/12/28 07:24:06;;;;;;;48.30;24.98;;;;;;;;;;5087961;28;20036;-63
2020/12/28 07:26:32;;;;;;;44.03;24.45;;;;;;;;;;5091997;28;20472;-62
2020/12/28 07:28:59;;;;;;;45.35;24.38;;;;;;;;;;5091628;28;20399;-63
2020/12/28 07:31:25;;;;;;;48.90;25.48;;;;;;;;;;5083027;28;20476;-63
2020/12/28 07:33:52;;;;;;;44.50;25.35;;;;;;;;;;5088071;28;20435;-64
2020/12/28 07:36:20;;;;;;;44.30;24.00;;;;;;;;;;5086733;28;20064;-63
2020/12/28 07:38:47;;;;;;;46.97;24.25;;;;;;;;;;5088819;28;20040;-63
2020/12/28 07:41:15;;;;;;;45.63;25.33;;;;;;;;;;5084852;28;20079;-64
2020/12/28 07:43:49;;;;;;;42.55;24.88;;;;;;;;;;5089067;28;20444;-64
2020/12/28 07:46:18;;;;;;;48.22;25.65;;;;;;;;;;5085337;28;20094;-63
2020/12/28 07:48:46;;;;;;;49.30;24.63;;;;;;;;;;5089881;28;20247;-63
2020/12/28 07:51:14;;;;;;;40.78;22.83;;;;;;;;;;5083973;28;20052;-63
2020/12/28 07:53:44;;;;;;;50.22;24.25;;;;;;;;;;5086498;28;20464;-63
2020/12/28 07:56:20;;;;;;;49.38;24.52;;;;;;;;;;5084388;28;20108;-63
2020/12/28 07:58:52;;;;;;;47.17;24.38;;;;;;;;;;5086914;28;20086;-63
2020/12/28 08:01:27;;;;;;;47.00;25.10;;;;;;;;;;5087149;28;20048;-63
2020/12/28 08:03:55;;;;;;;47.17;25.02;;;;;;;;;;5110030;27;20066;-63
2020/12/28 08:06:21;;;;;;;52.67;24.80;;;;;;;;;;5085875;28;20043;-63
2020/12/28 08:08:47;;;;;;;42.80;23.63;;;;;;;;;;5088611;28;20479;-63
2020/12/28 08:11:14;;;;;;;43.95;24.10;;;;;;;;;;5091075;28;20040;-63
2020/12/28 08:13:40;;;;;;;50.00;26.35;;;;;;;;;;5086198;28;20060;-63
2020/12/28 08:16:08;;;;;;;57.85;28.50;;;;;;;;;;5089722;28;20123;-63
2020/12/28 08:18:45;;;;;;;55.97;28.25;;;;;;;;;;5085314;28;20079;-63
2020/12/28 08:21:11;;;;;;;53.95;28.33;;;;;;;;;;5089503;28;20391;-64
2020/12/28 08:23:37;;;;;;;58.92;28.08;;;;;;;;;;5085614;28;20039;-63
2020/12/28 08:26:15;;;;;;;64.40;31.60;;;;;;;;;;5089624;28;20079;-63
2020/12/28 08:28:41;;;;;;;52.67;27.48;;;;;;;;;;5089458;28;20177;-63
2020/12/28 08:31:07;;;;;;;60.08;27.63;;;;;;;;;;5090609;28;20075;-64
2020/12/28 08:33:36;;;;;;;55.65;27.90;;;;;;;;;;5090940;28;20161;-64
2020/12/28 08:36:02;;;;;;;57.58;27.77;;;;;;;;;;5091078;28;20405;-66
2020/12/28 08:38:32;;;;;;;66.03;30.20;;;;;;;;;;5121409;27;20119;-64
2020/12/28 08:40:59;;;;;;;73.03;32.38;;;;;;;;;;5090612;28;20125;-64
2020/12/28 08:43:26;;;;;;;68.63;31.30;;;;;;;;;;5090117;28;20051;-63
2020/12/28 08:46:02;;;;;;;74.53;31.23;;;;;;;;;;5088841;28;20445;-63
2020/12/28 08:48:28;;;;;;;87.80;32.92;;;;;;;;;;5087628;28;20497;-62
2020/12/28 08:50:55;;;;;;;89.50;31.40;;;;;;;;;;5087257;28;20059;-63
2020/12/28 08:53:22;;;;;;;104.20;34.65;;;;;;;;;;5087258;28;20414;-63
2020/12/28 08:55:58;;;;;;;130.38;36.78;;;;;;;;;;5088189;28;20036;-72
2020/12/28 08:58:25;;;;;;;77.25;31.13;;;;;;;;;;5085242;28;20101;-63
2020/12/28 09:00:51;;;;;;;65.97;29.30;;;;;;;;;;5087513;28;20545;-63
2020/12/28 09:03:17;;;;;;;61.80;28.13;;;;;;;;;;5088593;28;20067;-63
2020/12/28 09:05:43;;;;;;;70.13;30.88;;;;;;;;;;5086439;28;20547;-62
2020/12/28 09:08:10;;;;;;;64.15;28.77;;;;;;;;;;5087885;28;20037;-63
2020/12/28 09:10:36;;;;;;;65.30;29.48;;;;;;;;;;5086558;28;20063;-62
2020/12/28 09:13:03;;;;;;;57.33;27.70;;;;;;;;;;5086760;28;20044;-62
2020/12/28 09:15:29;;;;;;;63.42;28.73;;;;;;;;;;5086733;28;20123;-63
2020/12/28 09:17:55;;;;;;;48.35;27.00;;;;;;;;;;5087729;28;20098;-62
2020/12/28 09:20:22;;;;;;;55.20;27.08;;;;;;;;;;5088102;28;20130;-63
2020/12/28 09:22:48;;;;;;;49.72;26.85;;;;;;;;;;5087249;28;20445;-63
2020/12/28 09:25:14;;;;;;;63.58;29.52;;;;;;;;;;5085940;28;20036;-63
2020/12/28 09:27:40;;;;;;;48.42;26.95;;;;;;;;;;5085941;28;20075;-61
2020/12/28 09:30:07;;;;;;;47.38;25.65;;;;;;;;;;5090157;28;20048;-61
2020/12/28 09:32:34;;;;;;;43.10;24.38;;;;;;;;;;5090279;28;20403;-61
2020/12/28 09:35:01;;;;;;;49.42;26.42;;;;;;;;;;5120830;27;20043;-62
2020/12/28 09:37:27;;;;;;;48.67;25.58;;;;;;;;;;5093753;28;20470;-62
2020/12/28 09:39:54;;;;;;;48.00;25.35;;;;;;;;;;5092083;28;20104;-61
2020/12/28 09:42:20;;;;;;;41.80;24.80;;;;;;;;;;5094414;28;20204;-62
2020/12/28 09:44:46;;;;;;;44.78;24.85;;;;;;;;;;5093832;28;20131;-61
2020/12/28 09:47:13;;;;;;;40.78;24.67;;;;;;;;;;5092966;28;20116;-61
2020/12/28 09:49:39;;;;;;;46.13;25.83;;;;;;;;;;5072650;28;20395;-61
2020/12/28 09:52:05;;;;;;;49.70;28.00;;;;;;;;;;5126086;27;20075;-62
2020/12/28 09:54:34;;;;;;;48.08;26.63;;;;;;;;;;5093269;28;20040;-63
2020/12/28 09:57:05;;;;;;;43.95;26.33;;;;;;;;;;5094074;28;20044;-63
2020/12/28 09:59:33;;;;;;;48.92;27.42;;;;;;;;;;5093593;28;20036;-62
2020/12/28 10:01:59;;;;;;;42.75;24.58;;;;;;;;;;5093201;28;20044;-71
2020/12/28 10:04:25;;;;;;;35.85;22.50;;;;;;;;;;5093805;28;20043;-72
2020/12/28 10:06:51;;;;;;;45.28;26.27;;;;;;;;;;5093916;28;20052;-73
2020/12/28 10:09:18;;;;;;;38.00;24.27;;;;;;;;;;5092872;28;20085;-73
2020/12/28 10:11:44;;;;;;;40.75;24.63;;;;;;;;;;5092201;28;20051;-72
2020/12/28 10:14:10;;;;;;;37.53;23.25;;;;;;;;;;5087850;28;20117;-74
2020/12/28 10:16:37;;;;;;;37.88;23.58;;;;;;;;;;5085092;28;20040;-72
2020/12/28 10:19:03;;;;;;;45.60;25.70;;;;;;;;;;5089010;28;20043;-72
2020/12/28 10:21:29;;;;;;;35.97;22.48;;;;;;;;;;5084613;28;20487;-72
2020/12/28 10:23:56;;;;;;;34.17;22.25;;;;;;;;;;5091125;28;20036;-72
2020/12/28 10:26:24;;;;;;;36.47;22.88;;;;;;;;;;5087855;28;20044;-72
2020/12/28 10:28:51;;;;;;;40.50;24.15;;;;;;;;;;5091242;28;20032;-72
2020/12/28 10:31:18;;;;;;;33.95;20.80;;;;;;;;;;5092903;28;20048;-73
2020/12/28 10:33:45;;;;;;;35.85;18.70;;;;;;;;;;5093048;28;20040;-75
2020/12/28 10:36:17;;;;;;;35.67;21.05;;;;;;;;;;5091003;28;20047;-71
2020/12/28 10:38:44;;;;;;;33.15;20.65;;;;;;;;;;5109794;27;20070;-72
2020/12/28 10:41:11;;;;;;;30.10;18.50;;;;;;;;;;5093397;28;20413;-72
2020/12/28 10:43:38;;;;;;;30.98;19.83;;;;;;;;;;5093017;28;20047;-72
2020/12/28 10:46:06;;;;;;;31.75;18.15;;;;;;;;;;5092773;28;20371;-71
2020/12/28 10:48:32;;;;;;;34.17;20.20;;;;;;;;;;5126017;27;20056;-71
2020/12/28 10:50:58;;;;;;;30.08;18.15;;;;;;;;;;5117881;27;20044;-71
2020/12/28 10:53:25;;;;;;;33.17;19.65;;;;;;;;;;5092522;28;20166;-71
2020/12/28 10:55:51;;;;;;;33.78;18.40;;;;;;;;;;5091504;28;20127;-71
2020/12/28 10:58:17;;;;;;;33.47;18.67;;;;;;;;;;5089599;28;20454;-71
2020/12/28 11:00:44;;;;;;;30.15;17.55;;;;;;;;;;5092270;28;20040;-71
2020/12/28 11:03:10;;;;;;;26.02;16.40;;;;;;;;;;5092475;28;20037;-71
2020/12/28 11:05:36;;;;;;;28.77;15.38;;;;;;;;;;5091230;28;20399;-71
2020/12/28 11:08:03;;;;;;;22.02;13.77;;;;;;;;;;5089439;28;20043;-71
2020/12/28 11:10:29;;;;;;;31.80;15.55;;;;;;;;;;5092760;28;20048;-71
2020/12/28 11:12:56;;;;;;;27.40;15.10;;;;;;;;;;5091494;28;20052;-72
2020/12/28 11:15:22;;;;;;;23.50;15.25;;;;;;;;;;5092626;28;20039;-71
2020/12/28 11:17:48;;;;;;;22.65;13.82;;;;;;;;;;5091015;28;20377;-72
2020/12/28 11:20:15;;;;;;;25.17;15.82;;;;;;;;;;5089975;28;20553;-71
2020/12/28 11:22:42;;;;;;;22.30;14.60;;;;;;;;;;5092292;28;20063;-71
2020/12/28 11:25:09;;;;;;;26.80;15.70;;;;;;;;;;5091993;28;20161;-71
2020/12/28 11:27:35;;;;;;;25.60;14.85;;;;;;;;;;5111766;27;20044;-71
2020/12/28 11:30:01;;;;;;;21.45;13.35;;;;;;;;;;5090437;28;20044;-71
2020/12/28 11:32:28;;;;;;;22.00;14.20;;;;;;;;;;5088345;28;20040;-71
2020/12/28 11:34:54;;;;;;;26.08;14.38;;;;;;;;;;5092090;28;20036;-71
2020/12/28 11:37:21;;;;;;;23.17;13.07;;;;;;;;;;5091747;28;20068;-71
2020/12/28 11:39:47;;;;;;;23.65;13.00;;;;;;;;;;5091634;28;20048;-72
2020/12/28 11:42:15;;;;;;;20.15;12.88;;;;;;;;;;5092323;28;20119;-72
2020/12/28 11:44:43;;;;;;;22.48;11.65;;;;;;;;;;5117645;27;20081;-72
2020/12/28 11:47:09;;;;;;;17.75;10.77;;;;;;;;;;5092679;28;20036;-72
2020/12/28 11:49:35;;;;;;;21.13;10.13;;;;;;;;;;5098063;28;20079;-73
2020/12/28 11:52:02;;;;;;;19.35;10.77;;;;;;;;;;5089301;28;20130;-72
2020/12/28 11:54:28;;;;;;;18.45;10.60;;;;;;;;;;5089799;28;20052;-72
2020/12/28 11:56:55;;;;;;;16.25;9.38;;;;;;;;;;5089682;28;20067;-71
2020/12/28 11:59:21;;;;;;;17.98;9.45;;;;;;;;;;5091739;28;20039;-72
2020/12/28 12:01:47;;;;;;;19.80;10.32;;;;;;;;;;5095627;28;20499;-72
2020/12/28 12:04:16;;;;;;;12.18;9.30;;;;;;;;;;5090882;28;20043;-72
2020/12/28 12:06:42;;;;;;;14.40;9.35;;;;;;;;;;5092119;28;20112;-71
2020/12/28 12:09:12;;;;;;;17.85;9.98;;;;;;;;;;5090490;28;20110;-72
2020/12/28 12:11:44;;;;;;;19.70;11.05;;;;;;;;;;5097992;28;20046;-72
2020/12/28 12:14:11;;;;;;;22.48;10.05;;;;;;;;;;5124255;27;20044;-72
2020/12/28 12:16:37;;;;;;;13.88;7.90;;;;;;;;;;5090667;28;20048;-73
2020/12/28 12:19:04;;;;;;;15.25;8.60;;;;;;;;;;5091252;28;20062;-72
2020/12/28 12:21:30;;;;;;;21.52;10.23;;;;;;;;;;5090159;28;20066;-72
2020/12/28 12:23:56;;;;;;;22.10;9.60;;;;;;;;;;5091020;28;20422;-72
2020/12/28 12:26:23;;;;;;;17.67;9.85;;;;;;;;;;5091110;28;20479;-72
2020/12/28 12:28:51;;;;;;;21.67;9.60;;;;;;;;;;5090427;28;20137;-72
2020/12/28 12:31:17;;;;;;;14.55;8.13;;;;;;;;;;5091044;28;20036;-72
2020/12/28 12:33:44;;;;;;;20.25;10.32;;;;;;;;;;5090850;28;20074;-79
2020/12/28 12:36:11;;;;;;;22.20;10.82;;;;;;;;;;5122121;27;20112;-72
2020/12/28 12:38:38;;;;;;;24.42;9.57;;;;;;;;;;5090756;28;20403;-71
2020/12/28 12:41:04;;;;;;;23.48;9.75;;;;;;;;;;5090523;28;20415;-72
2020/12/28 12:43:32;;;;;;;15.50;8.38;;;;;;;;;;5090122;28;20126;-71
2020/12/28 12:45:59;;;;;;;18.02;9.77;;;;;;;;;;5090783;28;20048;-72
2020/12/28 12:48:25;;;;;;;16.42;8.90;;;;;;;;;;5090676;28;20519;-72
2020/12/28 12:50:53;;;;;;;21.75;10.13;;;;;;;;;;5090075;28;20109;-72
2020/12/28 12:53:20;;;;;;;16.50;8.93;;;;;;;;;;5090419;28;20044;-71
2020/12/28 12:55:46;;;;;;;17.40;8.88;;;;;;;;;;5090175;28;20044;-72
2020/12/28 12:58:14;;;;;;;22.27;9.35;;;;;;;;;;5089819;28;20036;-72
2020/12/28 13:00:41;;;;;;;16.70;9.15;;;;;;;;;;5090897;28;20040;-72
2020/12/28 13:03:07;;;;;;;17.77;8.60;;;;;;;;;;5090347;28;20047;-72
2020/12/28 13:05:33;;;;;;;13.60;8.05;;;;;;;;;;5089744;28;20105;-72
2020/12/28 13:08:00;;;;;;;14.10;7.80;;;;;;;;;;5091015;28;20139;-72
2020/12/28 13:10:27;;;;;;;16.67;8.48;;;;;;;;;;5094994;28;20050;-72
2020/12/28 13:12:53;;;;;;;16.35;8.05;;;;;;;;;;5093713;28;20071;-73
2020/12/28 13:15:19;;;;;;;12.60;6.80;;;;;;;;;;5093566;28;20203;-73
2020/12/28 13:17:46;;;;;;;17.10;7.07;;;;;;;;;;5093919;28;20044;-72
2020/12/28 13:20:12;;;;;;;11.30;6.13;;;;;;;;;;5094409;28;20498;-72
2020/12/28 13:22:38;;;;;;;12.43;6.55;;;;;;;;;;5093184;28;20415;-72
2020/12/28 13:25:05;;;;;;;14.10;6.82;;;;;;;;;;5093573;28;20044;-72
2020/12/28 13:27:31;;;;;;;13.15;7.20;;;;;;;;;;5094579;28;20375;-72
2020/12/28 13:29:57;;;;;;;18.35;7.82;;;;;;;;;;5094892;28;20055;-72
2020/12/28 13:32:24;;;;;;;20.60;7.90;;;;;;;;;;5092238;28;20051;-72
2020/12/28 13:34:50;;;;;;;11.63;7.32;;;;;;;;;;5094121;28;20403;-72
2020/12/28 13:37:16;;;;;;;10.55;7.80;;;;;;;;;;5094371;28;20040;-72
2020/12/28 13:39:43;;;;;;;14.63;8.73;;;;;;;;;;5093125;28;20119;-72
2020/12/28 13:42:09;;;;;;;19.50;8.25;;;;;;;;;;5092663;28;20043;-72
2020/12/28 13:44:36;;;;;;;20.33;8.10;;;;;;;;;;5093841;28;20446;-72
2020/12/28 13:47:03;;;;;;;14.63;8.75;;;;;;;;;;5125572;27;20606;-72
2020/12/28 13:49:29;;;;;;;15.00;8.90;;;;;;;;;;5093880;28;20044;-72
2020/12/28 13:51:56;;;;;;;15.35;8.80;;;;;;;;;;5094034;28;20074;-72
2020/12/28 13:54:22;;;;;;;19.75;8.90;;;;;;;;;;5114256;27;20454;-73
2020/12/28 13:56:53;;;;;;;20.38;8.05;;;;;;;;;;5093922;28;20052;-72
2020/12/28 13:59:19;;;;;;;17.15;7.72;;;;;;;;;;5093528;28;20462;-72
2020/12/28 14:01:46;;;;;;;16.00;9.13;;;;;;;;;;5093284;28;20052;-72
2020/12/28 14:04:12;;;;;;;17.83;9.18;;;;;;;;;;5092355;28;20414;-72
2020/12/28 14:06:39;;;;;;;14.90;7.35;;;;;;;;;;5093493;28;20151;-72
2020/12/28 14:09:05;;;;;;;16.23;7.38;;;;;;;;;;5092890;28;20055;-72
2020/12/28 14:11:32;;;;;;;12.85;6.90;;;;;;;;;;5092089;28;20054;-73
2020/12/28 14:13:58;;;;;;;12.98;6.70;;;;;;;;;;5093337;28;20031;-73